sensor_id;sensor_type;location;lat;lon;timestamp;temperature;humidity
8093;DHT22;4089;52.420;13.334;2023-12-07T00:02:04;2.30;99.90
8093;DHT22;4089;52.420;13.334;2023-12-07T00:04:31;2.30;99.90
8093;DHT22;4089;52.420;13.334;2023-12-07T00:06:58;2.30;99.90
8093;DHT22;4089;52.420;13.334;2023-12-07T00:09:25;2.30;99.90
8093;DHT22;4089;52.420;13.334;2023-12-07T00:11:52;2.20;99.90
8093;DHT22;4089;52.420;13.334;2023-12-07T00:14:18;2.20;99.90
8093;DHT22;4089;52.420;13.334;2023-12-07T00:16:45;2.30;99.90
8093;DHT22;4089;52.420;13.334;2023-12-07T00:19:12;2.30;99.90
8093;DHT22;4089;52.420;13.334;2023-12-07T00:21:39;2.30;99.90
8093;DHT22;4089;52.420;13.334;2023-12-07T00:24:07;2.20;99.90
8093;DHT22;4089;52.420;13.334;2023-12-07T00:26:34;2.20;99.90
8093;DHT22;4089;52.420;13.334;2023-12-07T00:29:01;2.10;99.90
8093;DHT22;4089;52.420;13.334;2023-12-07T00:31:28;2.00;99.90
8093;DHT22;4089;52.420;13.334;2023-12-07T00:33:55;2.10;99.90
8093;DHT22;4089;52.420;13.334;2023-12-07T00:36:22;2.10;99.90
8093;DHT22;4089;52.420;13.334;2023-12-07T00:38:49;2.10;99.90
8093;DHT22;4089;52.420;13.334;2023-12-07T00:41:15;2.10;99.90
8093;DHT22;4089;52.420;13.334;2023-12-07T00:43:42;2.10;99.90
8093;DHT22;4089;52.420;13.334;2023-12-07T00:46:10;2.10;99.90
8093;DHT22;4089;52.420;13.334;2023-12-07T00:48:37;2.10;99.90
8093;DHT22;4089;52.420;13.334;2023-12-07T00:51:04;2.10;99.90
8093;DHT22;4089;52.420;13.334;2023-12-07T00:53:33;2.10;99.90
8093;DHT22;4089;52.420;13.334;2023-12-07T00:56:00;2.10;99.90
8093;DHT22;4089;52.420;13.334;2023-12-07T00:58:26;2.10;99.90
8093;DHT22;4089;52.420;13.334;2023-12-07T01:00:53;2.20;99.90
8093;DHT22;4089;52.420;13.334;2023-12-07T01:03:20;2.20;99.90
8093;DHT22;4089;52.420;13.334;2023-12-07T01:05:47;2.30;99.90
8093;DHT22;4089;52.420;13.334;2023-12-07T01:08:14;2.30;99.90
8093;DHT22;4089;52.420;13.334;2023-12-07T01:10:41;2.30;99.90
8093;DHT22;4089;52.420;13.334;2023-12-07T01:13:08;2.30;99.90
8093;DHT22;4089;52.420;13.334;2023-12-07T01:15:35;2.20;99.90
8093;DHT22;4089;52.420;13.334;2023-12-07T01:18:01;2.20;99.90
8093;DHT22;4089;52.420;13.334;2023-12-07T01:20:28;2.20;99.90
8093;DHT22;4089;52.420;13.334;2023-12-07T01:22:55;2.20;99.90
8093;DHT22;4089;52.420;13.334;2023-12-07T01:25:22;2.20;99.90
8093;DHT22;4089;52.420;13.334;2023-12-07T01:27:49;2.20;99.90
8093;DHT22;4089;52.420;13.334;2023-12-07T01:30:16;2.10;99.90
8093;DHT22;4089;52.420;13.334;2023-12-07T01:32:44;2.10;99.90
8093;DHT22;4089;52.420;13.334;2023-12-07T01:35:10;2.10;99.90
8093;DHT22;4089;52.420;13.334;2023-12-07T01:37:38;2.10;99.90
8093;DHT22;4089;52.420;13.334;2023-12-07T01:40:05;2.00;99.90
8093;DHT22;4089;52.420;13.334;2023-12-07T01:42:39;2.00;99.90
8093;DHT22;4089;52.420;13.334;2023-12-07T01:45:07;2.00;99.90
8093;DHT22;4089;52.420;13.334;2023-12-07T01:47:35;2.00;99.90
8093;DHT22;4089;52.420;13.334;2023-12-07T01:50:02;2.00;99.90
8093;DHT22;4089;52.420;13.334;2023-12-07T01:52:36;2.00;99.90
8093;DHT22;4089;52.420;13.334;2023-12-07T01:55:06;2.00;99.90
8093;DHT22;4089;52.420;13.334;2023-12-07T01:57:34;2.10;99.90
8093;DHT22;4089;52.420;13.334;2023-12-07T02:00:01;2.20;99.90
8093;DHT22;4089;52.420;13.334;2023-12-07T02:02:28;2.20;99.90
8093;DHT22;4089;52.420;13.334;2023-12-07T02:04:55;2.20;99.90
8093;DHT22;4089;52.420;13.334;2023-12-07T02:07:23;2.30;99.90
8093;DHT22;4089;52.420;13.334;2023-12-07T02:09:50;2.20;99.90
8093;DHT22;4089;52.420;13.334;2023-12-07T02:12:17;2.20;99.90
8093;DHT22;4089;52.420;13.334;2023-12-07T02:14:46;2.20;99.90
8093;DHT22;4089;52.420;13.334;2023-12-07T02:17:33;2.20;99.90
8093;DHT22;4089;52.420;13.334;2023-12-07T02:20:11;2.20;99.90
8093;DHT22;4089;52.420;13.334;2023-12-07T02:22:48;2.20;99.90
8093;DHT22;4089;52.420;13.334;2023-12-07T02:25:18;2.20;99.90
8093;DHT22;4089;52.420;13.334;2023-12-07T02:27:45;2.30;99.90
8093;DHT22;4089;52.420;13.334;2023-12-07T02:30:15;2.20;99.90
8093;DHT22;4089;52.420;13.334;2023-12-07T02:32:44;2.20;99.90
8093;DHT22;4089;52.420;13.334;2023-12-07T02:35:13;2.20;99.90
8093;DHT22;4089;52.420;13.334;2023-12-07T02:37:49;2.20;99.90
8093;DHT22;4089;52.420;13.334;2023-12-07T02:40:26;2.20;99.90
8093;DHT22;4089;52.420;13.334;2023-12-07T02:42:54;2.20;99.90
8093;DHT22;4089;52.420;13.334;2023-12-07T02:45:21;2.20;99.90
8093;DHT22;4089;52.420;13.334;2023-12-07T02:47:48;2.20;99.90
8093;DHT22;4089;52.420;13.334;2023-12-07T02:50:15;2.20;99.90
8093;DHT22;4089;52.420;13.334;2023-12-07T02:52:42;2.20;99.90
8093;DHT22;4089;52.420;13.334;2023-12-07T02:55:09;2.20;99.90
8093;DHT22;4089;52.420;13.334;2023-12-07T02:57:36;2.20;99.90
8093;DHT22;4089;52.420;13.334;2023-12-07T03:00:05;2.20;99.90
8093;DHT22;4089;52.420;13.334;2023-12-07T03:02:38;2.20;99.90
8093;DHT22;4089;52.420;13.334;2023-12-07T03:05:06;2.20;99.90
8093;DHT22;4089;52.420;13.334;2023-12-07T03:07:34;2.20;99.90
8093;DHT22;4089;52.420;13.334;2023-12-07T03:10:01;2.20;99.90
8093;DHT22;4089;52.420;13.334;2023-12-07T03:12:29;2.20;99.90
8093;DHT22;4089;52.420;13.334;2023-12-07T03:14:56;2.10;99.90
8093;DHT22;4089;52.420;13.334;2023-12-07T03:17:23;2.10;99.90
8093;DHT22;4089;52.420;13.334;2023-12-07T03:19:50;2.10;99.90
8093;DHT22;4089;52.420;13.334;2023-12-07T03:22:17;2.10;99.90
8093;DHT22;4089;52.420;13.334;2023-12-07T03:24:46;2.20;99.90
8093;DHT22;4089;52.420;13.334;2023-12-07T03:27:14;2.20;99.90
8093;DHT22;4089;52.420;13.334;2023-12-07T03:29:41;2.20;99.90
8093;DHT22;4089;52.420;13.334;2023-12-07T03:32:08;2.20;99.90
8093;DHT22;4089;52.420;13.334;2023-12-07T03:34:35;2.30;99.90
8093;DHT22;4089;52.420;13.334;2023-12-07T03:37:02;2.30;99.90
8093;DHT22;4089;52.420;13.334;2023-12-07T03:39:30;2.30;99.90
8093;DHT22;4089;52.420;13.334;2023-12-07T03:41:59;2.20;99.90
8093;DHT22;4089;52.420;13.334;2023-12-07T03:44:26;2.20;99.90
8093;DHT22;4089;52.420;13.334;2023-12-07T03:46:53;2.20;99.90
8093;DHT22;4089;52.420;13.334;2023-12-07T03:49:20;2.20;99.90
8093;DHT22;4089;52.420;13.334;2023-12-07T03:51:47;2.20;99.90
8093;DHT22;4089;52.420;13.334;2023-12-07T03:54:15;2.10;99.90
8093;DHT22;4089;52.420;13.334;2023-12-07T03:56:42;2.10;99.90
8093;DHT22;4089;52.420;13.334;2023-12-07T03:59:09;2.10;99.90
8093;DHT22;4089;52.420;13.334;2023-12-07T04:01:36;2.20;99.90
8093;DHT22;4089;52.420;13.334;2023-12-07T04:04:03;2.00;99.90
8093;DHT22;4089;52.420;13.334;2023-12-07T04:06:31;2.00;99.90
8093;DHT22;4089;52.420;13.334;2023-12-07T04:08:58;2.10;99.90
8093;DHT22;4089;52.420;13.334;2023-12-07T04:11:25;2.20;99.90
8093;DHT22;4089;52.420;13.334;2023-12-07T04:13:51;2.20;99.90
8093;DHT22;4089;52.420;13.334;2023-12-07T04:16:18;2.20;99.90
8093;DHT22;4089;52.420;13.334;2023-12-07T04:18:45;2.30;99.90
8093;DHT22;4089;52.420;13.334;2023-12-07T04:21:12;2.30;99.90
8093;DHT22;4089;52.420;13.334;2023-12-07T04:23:39;2.40;99.90
8093;DHT22;4089;52.420;13.334;2023-12-07T04:26:06;2.60;99.90
8093;DHT22;4089;52.420;13.334;2023-12-07T04:28:32;2.50;99.90
8093;DHT22;4089;52.420;13.334;2023-12-07T04:30:59;2.60;99.90
8093;DHT22;4089;52.420;13.334;2023-12-07T04:33:26;2.60;99.90
8093;DHT22;4089;52.420;13.334;2023-12-07T04:35:53;2.50;99.90
8093;DHT22;4089;52.420;13.334;2023-12-07T04:38:20;2.50;99.90
8093;DHT22;4089;52.420;13.334;2023-12-07T04:40:47;2.50;99.90
8093;DHT22;4089;52.420;13.334;2023-12-07T04:43:14;2.50;99.90
8093;DHT22;4089;52.420;13.334;2023-12-07T04:45:41;2.60;99.90
8093;DHT22;4089;52.420;13.334;2023-12-07T04:48:08;2.50;99.90
8093;DHT22;4089;52.420;13.334;2023-12-07T04:50:35;2.60;99.90
8093;DHT22;4089;52.420;13.334;2023-12-07T04:53:02;2.50;99.90
8093;DHT22;4089;52.420;13.334;2023-12-07T04:55:28;2.40;99.90
8093;DHT22;4089;52.420;13.334;2023-12-07T04:57:55;2.30;99.90
8093;DHT22;4089;52.420;13.334;2023-12-07T05:00:22;2.30;99.90
8093;DHT22;4089;52.420;13.334;2023-12-07T05:02:49;2.30;99.90
8093;DHT22;4089;52.420;13.334;2023-12-07T05:05:16;2.20;99.90
8093;DHT22;4089;52.420;13.334;2023-12-07T05:07:44;2.20;99.90
8093;DHT22;4089;52.420;13.334;2023-12-07T05:10:11;2.20;99.90
8093;DHT22;4089;52.420;13.334;2023-12-07T05:12:38;2.30;99.90
8093;DHT22;4089;52.420;13.334;2023-12-07T05:15:05;2.30;99.90
8093;DHT22;4089;52.420;13.334;2023-12-07T05:17:33;2.30;99.90
8093;DHT22;4089;52.420;13.334;2023-12-07T05:20:00;2.30;99.90
8093;DHT22;4089;52.420;13.334;2023-12-07T05:22:26;2.30;99.90
8093;DHT22;4089;52.420;13.334;2023-12-07T05:24:55;2.30;99.90
8093;DHT22;4089;52.420;13.334;2023-12-07T05:27:22;2.20;99.90
8093;DHT22;4089;52.420;13.334;2023-12-07T05:29:49;2.30;99.90
8093;DHT22;4089;52.420;13.334;2023-12-07T05:32:15;2.30;99.90
8093;DHT22;4089;52.420;13.334;2023-12-07T05:34:42;2.30;99.90
8093;DHT22;4089;52.420;13.334;2023-12-07T05:37:09;2.40;99.90
8093;DHT22;4089;52.420;13.334;2023-12-07T05:39:36;2.40;99.90
8093;DHT22;4089;52.420;13.334;2023-12-07T05:42:03;2.40;99.90
8093;DHT22;4089;52.420;13.334;2023-12-07T05:44:31;2.40;99.90
8093;DHT22;4089;52.420;13.334;2023-12-07T05:46:58;2.40;99.90
8093;DHT22;4089;52.420;13.334;2023-12-07T05:49:24;2.50;99.90
8093;DHT22;4089;52.420;13.334;2023-12-07T05:51:52;2.50;99.90
8093;DHT22;4089;52.420;13.334;2023-12-07T05:54:19;2.50;99.90
8093;DHT22;4089;52.420;13.334;2023-12-07T05:56:49;2.60;99.90
8093;DHT22;4089;52.420;13.334;2023-12-07T05:59:16;2.60;99.90
8093;DHT22;4089;52.420;13.334;2023-12-07T06:01:43;2.50;99.90
8093;DHT22;4089;52.420;13.334;2023-12-07T06:04:10;2.50;99.90
8093;DHT22;4089;52.420;13.334;2023-12-07T06:06:39;2.50;99.90
8093;DHT22;4089;52.420;13.334;2023-12-07T06:09:06;2.40;99.90
8093;DHT22;4089;52.420;13.334;2023-12-07T06:11:33;2.40;99.90
8093;DHT22;4089;52.420;13.334;2023-12-07T06:14:01;2.40;99.90
8093;DHT22;4089;52.420;13.334;2023-12-07T06:16:28;2.40;99.90
8093;DHT22;4089;52.420;13.334;2023-12-07T06:18:55;2.50;99.90
8093;DHT22;4089;52.420;13.334;2023-12-07T06:21:28;2.40;99.90
8093;DHT22;4089;52.420;13.334;2023-12-07T06:23:57;2.50;99.90
8093;DHT22;4089;52.420;13.334;2023-12-07T06:26:25;2.40;99.90
8093;DHT22;4089;52.420;13.334;2023-12-07T06:28:52;2.40;99.90
8093;DHT22;4089;52.420;13.334;2023-12-07T06:31:19;2.40;99.90
8093;DHT22;4089;52.420;13.334;2023-12-07T06:33:48;2.40;99.90
8093;DHT22;4089;52.420;13.334;2023-12-07T06:36:23;2.40;99.90
8093;DHT22;4089;52.420;13.334;2023-12-07T06:38:50;2.50;99.90
8093;DHT22;4089;52.420;13.334;2023-12-07T06:41:17;2.50;99.90
8093;DHT22;4089;52.420;13.334;2023-12-07T06:43:44;2.60;99.90
8093;DHT22;4089;52.420;13.334;2023-12-07T06:46:12;2.50;99.90
8093;DHT22;4089;52.420;13.334;2023-12-07T06:48:40;2.50;99.90
8093;DHT22;4089;52.420;13.334;2023-12-07T06:51:07;2.50;99.90
8093;DHT22;4089;52.420;13.334;2023-12-07T06:53:34;2.50;99.90
8093;DHT22;4089;52.420;13.334;2023-12-07T06:56:01;2.50;99.90
8093;DHT22;4089;52.420;13.334;2023-12-07T06:58:28;2.50;99.90
8093;DHT22;4089;52.420;13.334;2023-12-07T07:00:55;2.50;99.90
8093;DHT22;4089;52.420;13.334;2023-12-07T07:03:22;2.50;99.90
8093;DHT22;4089;52.420;13.334;2023-12-07T07:05:49;2.50;99.90
8093;DHT22;4089;52.420;13.334;2023-12-07T07:08:16;2.50;99.90
8093;DHT22;4089;52.420;13.334;2023-12-07T07:10:44;2.50;99.90
8093;DHT22;4089;52.420;13.334;2023-12-07T07:13:14;2.50;99.90
8093;DHT22;4089;52.420;13.334;2023-12-07T07:15:46;2.50;99.90
8093;DHT22;4089;52.420;13.334;2023-12-07T07:18:14;2.50;99.90
8093;DHT22;4089;52.420;13.334;2023-12-07T07:20:41;2.50;99.90
8093;DHT22;4089;52.420;13.334;2023-12-07T07:23:08;2.50;99.90
8093;DHT22;4089;52.420;13.334;2023-12-07T07:25:35;2.60;99.90
8093;DHT22;4089;52.420;13.334;2023-12-07T07:28:03;2.60;99.90
8093;DHT22;4089;52.420;13.334;2023-12-07T07:30:30;2.60;99.90
8093;DHT22;4089;52.420;13.334;2023-12-07T07:32:57;2.60;99.90
8093;DHT22;4089;52.420;13.334;2023-12-07T07:35:24;2.60;99.90
8093;DHT22;4089;52.420;13.334;2023-12-07T07:37:51;2.60;99.90
8093;DHT22;4089;52.420;13.334;2023-12-07T07:40:17;2.50;99.90
8093;DHT22;4089;52.420;13.334;2023-12-07T07:42:44;2.50;99.90
8093;DHT22;4089;52.420;13.334;2023-12-07T07:45:12;2.50;99.90
8093;DHT22;4089;52.420;13.334;2023-12-07T07:47:39;2.50;99.90
8093;DHT22;4089;52.420;13.334;2023-12-07T07:50:06;2.50;99.90
8093;DHT22;4089;52.420;13.334;2023-12-07T07:52:34;2.50;99.90
8093;DHT22;4089;52.420;13.334;2023-12-07T07:55:03;2.50;99.90
8093;DHT22;4089;52.420;13.334;2023-12-07T07:57:30;2.50;99.90
8093;DHT22;4089;52.420;13.334;2023-12-07T07:59:57;2.50;99.90
8093;DHT22;4089;52.420;13.334;2023-12-07T08:02:24;2.50;99.90
8093;DHT22;4089;52.420;13.334;2023-12-07T08:04:51;2.50;99.90
8093;DHT22;4089;52.420;13.334;2023-12-07T08:07:18;2.50;99.90
8093;DHT22;4089;52.420;13.334;2023-12-07T08:09:45;2.60;99.90
8093;DHT22;4089;52.420;13.334;2023-12-07T08:12:12;2.60;99.90
8093;DHT22;4089;52.420;13.334;2023-12-07T08:14:39;2.60;99.90
8093;DHT22;4089;52.420;13.334;2023-12-07T08:17:06;2.60;99.90
8093;DHT22;4089;52.420;13.334;2023-12-07T08:19:33;2.50;99.90
8093;DHT22;4089;52.420;13.334;2023-12-07T08:22:00;2.50;99.90
8093;DHT22;4089;52.420;13.334;2023-12-07T08:24:27;2.60;99.90
8093;DHT22;4089;52.420;13.334;2023-12-07T08:26:54;2.60;99.90
8093;DHT22;4089;52.420;13.334;2023-12-07T08:29:21;2.60;99.90
8093;DHT22;4089;52.420;13.334;2023-12-07T08:31:47;2.60;99.90
8093;DHT22;4089;52.420;13.334;2023-12-07T08:34:15;2.60;99.90
8093;DHT22;4089;52.420;13.334;2023-12-07T08:36:41;2.70;99.90
8093;DHT22;4089;52.420;13.334;2023-12-07T08:39:08;2.70;99.90
8093;DHT22;4089;52.420;13.334;2023-12-07T08:41:36;2.80;99.90
8093;DHT22;4089;52.420;13.334;2023-12-07T08:44:04;2.80;99.90
8093;DHT22;4089;52.420;13.334;2023-12-07T08:46:32;2.90;99.90
8093;DHT22;4089;52.420;13.334;2023-12-07T08:48:59;3.00;99.90
8093;DHT22;4089;52.420;13.334;2023-12-07T08:51:26;3.10;99.90
8093;DHT22;4089;52.420;13.334;2023-12-07T08:53:52;3.00;99.90
8093;DHT22;4089;52.420;13.334;2023-12-07T08:56:22;3.00;99.90
8093;DHT22;4089;52.420;13.334;2023-12-07T08:58:48;2.90;99.90
8093;DHT22;4089;52.420;13.334;2023-12-07T09:01:15;2.90;99.90
8093;DHT22;4089;52.420;13.334;2023-12-07T09:03:57;2.80;99.90
8093;DHT22;4089;52.420;13.334;2023-12-07T09:06:24;2.80;99.90
8093;DHT22;4089;52.420;13.334;2023-12-07T09:08:52;2.80;99.90
8093;DHT22;4089;52.420;13.334;2023-12-07T09:11:19;2.80;99.90
8093;DHT22;4089;52.420;13.334;2023-12-07T09:13:46;2.80;99.90
8093;DHT22;4089;52.420;13.334;2023-12-07T09:16:13;2.90;99.90
8093;DHT22;4089;52.420;13.334;2023-12-07T09:18:41;2.80;99.90
8093;DHT22;4089;52.420;13.334;2023-12-07T09:21:09;2.80;99.90
8093;DHT22;4089;52.420;13.334;2023-12-07T09:23:35;2.70;99.90
8093;DHT22;4089;52.420;13.334;2023-12-07T09:26:04;2.80;99.90
8093;DHT22;4089;52.420;13.334;2023-12-07T09:28:31;2.90;99.90
8093;DHT22;4089;52.420;13.334;2023-12-07T09:31:00;2.90;99.90
8093;DHT22;4089;52.420;13.334;2023-12-07T09:33:29;2.90;99.90
8093;DHT22;4089;52.420;13.334;2023-12-07T09:35:56;2.90;99.90
8093;DHT22;4089;52.420;13.334;2023-12-07T09:38:22;2.90;99.90
8093;DHT22;4089;52.420;13.334;2023-12-07T09:40:53;2.90;99.90
8093;DHT22;4089;52.420;13.334;2023-12-07T09:43:20;2.80;99.90
8093;DHT22;4089;52.420;13.334;2023-12-07T09:45:48;2.80;99.90
8093;DHT22;4089;52.420;13.334;2023-12-07T09:48:16;2.60;99.90
8093;DHT22;4089;52.420;13.334;2023-12-07T09:50:43;2.50;99.90
8093;DHT22;4089;52.420;13.334;2023-12-07T09:53:10;2.50;99.90
8093;DHT22;4089;52.420;13.334;2023-12-07T09:55:37;2.60;99.90
8093;DHT22;4089;52.420;13.334;2023-12-07T09:58:06;2.60;99.90
8093;DHT22;4089;52.420;13.334;2023-12-07T10:00:36;2.50;99.90
8093;DHT22;4089;52.420;13.334;2023-12-07T10:03:03;2.50;99.90
8093;DHT22;4089;52.420;13.334;2023-12-07T10:05:31;2.50;99.90
8093;DHT22;4089;52.420;13.334;2023-12-07T10:07:58;2.40;99.90
8093;DHT22;4089;52.420;13.334;2023-12-07T10:10:25;2.40;99.90
8093;DHT22;4089;52.420;13.334;2023-12-07T10:12:58;2.50;99.90
8093;DHT22;4089;52.420;13.334;2023-12-07T10:15:26;2.50;99.90
8093;DHT22;4089;52.420;13.334;2023-12-07T10:17:57;2.60;99.90
8093;DHT22;4089;52.420;13.334;2023-12-07T10:20:27;2.70;99.90
8093;DHT22;4089;52.420;13.334;2023-12-07T10:23:07;2.80;99.90
8093;DHT22;4089;52.420;13.334;2023-12-07T10:25:40;2.80;99.90
8093;DHT22;4089;52.420;13.334;2023-12-07T10:28:08;2.80;99.90
8093;DHT22;4089;52.420;13.334;2023-12-07T10:30:40;2.90;99.90
8093;DHT22;4089;52.420;13.334;2023-12-07T10:33:10;3.00;99.90
8093;DHT22;4089;52.420;13.334;2023-12-07T10:35:41;2.80;99.90
8093;DHT22;4089;52.420;13.334;2023-12-07T10:38:09;2.80;99.90
8093;DHT22;4089;52.420;13.334;2023-12-07T10:40:36;2.70;99.90
8093;DHT22;4089;52.420;13.334;2023-12-07T10:43:07;2.90;99.90
8093;DHT22;4089;52.420;13.334;2023-12-07T10:45:36;3.00;99.90
8093;DHT22;4089;52.420;13.334;2023-12-07T10:48:08;3.00;99.90
8093;DHT22;4089;52.420;13.334;2023-12-07T10:50:40;3.00;99.90
8093;DHT22;4089;52.420;13.334;2023-12-07T10:53:27;3.10;99.90
8093;DHT22;4089;52.420;13.334;2023-12-07T10:56:02;3.00;99.90
8093;DHT22;4089;52.420;13.334;2023-12-07T10:58:35;3.00;99.90
8093;DHT22;4089;52.420;13.334;2023-12-07T11:01:03;3.00;99.90
8093;DHT22;4089;52.420;13.334;2023-12-07T11:03:31;2.90;99.90
8093;DHT22;4089;52.420;13.334;2023-12-07T11:05:58;3.00;99.90
8093;DHT22;4089;52.420;13.334;2023-12-07T11:08:37;3.00;99.90
8093;DHT22;4089;52.420;13.334;2023-12-07T11:13:56;3.20;99.90
8093;DHT22;4089;52.420;13.334;2023-12-07T11:16:42;3.10;99.90
8093;DHT22;4089;52.420;13.334;2023-12-07T11:22:07;3.10;99.90
8093;DHT22;4089;52.420;13.334;2023-12-07T11:24:36;3.10;99.90
8093;DHT22;4089;52.420;13.334;2023-12-07T11:27:04;3.10;99.90
8093;DHT22;4089;52.420;13.334;2023-12-07T11:29:32;3.10;99.90
8093;DHT22;4089;52.420;13.334;2023-12-07T11:32:02;3.10;99.90
8093;DHT22;4089;52.420;13.334;2023-12-07T11:34:43;3.10;99.90
8093;DHT22;4089;52.420;13.334;2023-12-07T11:37:13;3.00;99.90
8093;DHT22;4089;52.420;13.334;2023-12-07T11:39:41;3.00;99.90
8093;DHT22;4089;52.420;13.334;2023-12-07T11:42:15;3.00;99.90
8093;DHT22;4089;52.420;13.334;2023-12-07T11:44:43;3.10;99.90
8093;DHT22;4089;52.420;13.334;2023-12-07T11:47:15;3.10;99.90
8093;DHT22;4089;52.420;13.334;2023-12-07T11:49:44;3.20;99.90
8093;DHT22;4089;52.420;13.334;2023-12-07T11:52:18;3.00;99.90
8093;DHT22;4089;52.420;13.334;2023-12-07T11:54:45;2.90;99.90
8093;DHT22;4089;52.420;13.334;2023-12-07T11:57:14;2.90;99.90
8093;DHT22;4089;52.420;13.334;2023-12-07T11:59:45;3.00;99.90
8093;DHT22;4089;52.420;13.334;2023-12-07T12:02:12;3.10;99.90
8093;DHT22;4089;52.420;13.334;2023-12-07T12:04:41;2.90;99.90
8093;DHT22;4089;52.420;13.334;2023-12-07T12:07:08;2.90;99.90
8093;DHT22;4089;52.420;13.334;2023-12-07T12:09:35;2.90;99.90
8093;DHT22;4089;52.420;13.334;2023-12-07T12:12:02;2.90;99.90
8093;DHT22;4089;52.420;13.334;2023-12-07T12:14:29;2.90;99.90
8093;DHT22;4089;52.420;13.334;2023-12-07T12:16:57;3.00;99.90
8093;DHT22;4089;52.420;13.334;2023-12-07T12:19:25;3.10;99.90
8093;DHT22;4089;52.420;13.334;2023-12-07T12:22:03;3.10;99.90
8093;DHT22;4089;52.420;13.334;2023-12-07T12:24:35;3.00;99.90
8093;DHT22;4089;52.420;13.334;2023-12-07T12:27:02;3.00;99.90
8093;DHT22;4089;52.420;13.334;2023-12-07T12:29:30;3.00;99.90
8093;DHT22;4089;52.420;13.334;2023-12-07T12:32:02;3.00;99.90
8093;DHT22;4089;52.420;13.334;2023-12-07T12:34:30;3.00;99.90
8093;DHT22;4089;52.420;13.334;2023-12-07T12:36:59;3.10;99.90
8093;DHT22;4089;52.420;13.334;2023-12-07T12:39:29;3.20;99.90
8093;DHT22;4089;52.420;13.334;2023-12-07T12:42:00;3.20;99.90
8093;DHT22;4089;52.420;13.334;2023-12-07T12:44:28;3.10;99.90
8093;DHT22;4089;52.420;13.334;2023-12-07T12:47:05;3.10;99.90
8093;DHT22;4089;52.420;13.334;2023-12-07T12:49:39;3.10;99.90
8093;DHT22;4089;52.420;13.334;2023-12-07T12:52:10;3.10;99.90
8093;DHT22;4089;52.420;13.334;2023-12-07T12:54:39;3.20;99.90
8093;DHT22;4089;52.420;13.334;2023-12-07T12:57:09;3.30;99.90
8093;DHT22;4089;52.420;13.334;2023-12-07T12:59:36;3.30;99.90
8093;DHT22;4089;52.420;13.334;2023-12-07T13:02:03;3.30;99.90
8093;DHT22;4089;52.420;13.334;2023-12-07T13:04:33;3.40;99.90
8093;DHT22;4089;52.420;13.334;2023-12-07T13:07:03;3.50;99.90
8093;DHT22;4089;52.420;13.334;2023-12-07T13:09:31;3.50;99.90
8093;DHT22;4089;52.420;13.334;2023-12-07T13:11:58;3.50;99.90
8093;DHT22;4089;52.420;13.334;2023-12-07T13:14:30;3.50;99.90
8093;DHT22;4089;52.420;13.334;2023-12-07T13:16:58;3.50;99.90
8093;DHT22;4089;52.420;13.334;2023-12-07T13:19:25;3.50;99.90
8093;DHT22;4089;52.420;13.334;2023-12-07T13:21:52;3.40;99.90
8093;DHT22;4089;52.420;13.334;2023-12-07T13:24:19;3.40;99.90
8093;DHT22;4089;52.420;13.334;2023-12-07T13:26:45;3.50;99.90
8093;DHT22;4089;52.420;13.334;2023-12-07T13:29:14;3.30;99.90
8093;DHT22;4089;52.420;13.334;2023-12-07T13:31:54;3.30;99.90
8093;DHT22;4089;52.420;13.334;2023-12-07T13:34:21;3.30;99.90
8093;DHT22;4089;52.420;13.334;2023-12-07T13:36:50;3.40;99.90
8093;DHT22;4089;52.420;13.334;2023-12-07T13:39:17;3.40;99.90
8093;DHT22;4089;52.420;13.334;2023-12-07T13:41:57;3.50;99.90
8093;DHT22;4089;52.420;13.334;2023-12-07T13:44:24;3.40;99.90
8093;DHT22;4089;52.420;13.334;2023-12-07T13:46:54;3.40;99.90
8093;DHT22;4089;52.420;13.334;2023-12-07T13:49:23;3.40;99.90
8093;DHT22;4089;52.420;13.334;2023-12-07T13:52:00;3.40;99.90
8093;DHT22;4089;52.420;13.334;2023-12-07T13:54:33;3.20;99.90
8093;DHT22;4089;52.420;13.334;2023-12-07T13:57:19;3.20;99.90
8093;DHT22;4089;52.420;13.334;2023-12-07T13:59:54;3.20;99.90
8093;DHT22;4089;52.420;13.334;2023-12-07T14:02:21;3.20;99.90
8093;DHT22;4089;52.420;13.334;2023-12-07T14:04:49;3.20;99.90
8093;DHT22;4089;52.420;13.334;2023-12-07T14:07:21;3.20;99.90
8093;DHT22;4089;52.420;13.334;2023-12-07T14:09:50;3.30;99.90
8093;DHT22;4089;52.420;13.334;2023-12-07T14:12:25;3.20;99.90
8093;DHT22;4089;52.420;13.334;2023-12-07T14:14:52;3.20;99.90
8093;DHT22;4089;52.420;13.334;2023-12-07T14:17:21;3.20;99.90
8093;DHT22;4089;52.420;13.334;2023-12-07T14:20:07;3.20;99.90
8093;DHT22;4089;52.420;13.334;2023-12-07T14:22:55;3.30;99.90
8093;DHT22;4089;52.420;13.334;2023-12-07T14:25:23;3.30;99.90
8093;DHT22;4089;52.420;13.334;2023-12-07T14:27:50;3.30;99.90
8093;DHT22;4089;52.420;13.334;2023-12-07T14:30:17;3.30;99.90
8093;DHT22;4089;52.420;13.334;2023-12-07T14:32:45;3.30;99.90
8093;DHT22;4089;52.420;13.334;2023-12-07T14:35:19;3.30;99.90
8093;DHT22;4089;52.420;13.334;2023-12-07T14:37:47;3.20;99.90
8093;DHT22;4089;52.420;13.334;2023-12-07T14:40:14;3.20;99.90
8093;DHT22;4089;52.420;13.334;2023-12-07T14:42:44;3.20;99.90
8093;DHT22;4089;52.420;13.334;2023-12-07T14:45:12;3.20;99.90
8093;DHT22;4089;52.420;13.334;2023-12-07T14:47:39;3.20;99.90
8093;DHT22;4089;52.420;13.334;2023-12-07T14:50:06;3.10;99.90
8093;DHT22;4089;52.420;13.334;2023-12-07T14:52:33;3.00;99.90
8093;DHT22;4089;52.420;13.334;2023-12-07T14:55:01;3.10;99.90
8093;DHT22;4089;52.420;13.334;2023-12-07T14:57:31;3.10;99.90
8093;DHT22;4089;52.420;13.334;2023-12-07T14:59:58;3.10;99.90
8093;DHT22;4089;52.420;13.334;2023-12-07T15:02:25;3.20;99.90
8093;DHT22;4089;52.420;13.334;2023-12-07T15:04:53;3.20;99.90
8093;DHT22;4089;52.420;13.334;2023-12-07T15:07:19;3.10;99.90
8093;DHT22;4089;52.420;13.334;2023-12-07T15:09:46;3.20;99.90
8093;DHT22;4089;52.420;13.334;2023-12-07T15:12:15;3.20;99.90
8093;DHT22;4089;52.420;13.334;2023-12-07T15:14:45;3.20;99.90
8093;DHT22;4089;52.420;13.334;2023-12-07T15:17:12;3.20;99.90
8093;DHT22;4089;52.420;13.334;2023-12-07T15:19:39;3.20;99.90
8093;DHT22;4089;52.420;13.334;2023-12-07T15:22:11;3.30;99.90
8093;DHT22;4089;52.420;13.334;2023-12-07T15:24:38;3.20;99.90
8093;DHT22;4089;52.420;13.334;2023-12-07T15:27:07;3.10;99.90
8093;DHT22;4089;52.420;13.334;2023-12-07T15:29:34;3.10;99.90
8093;DHT22;4089;52.420;13.334;2023-12-07T15:32:04;3.20;99.90
8093;DHT22;4089;52.420;13.334;2023-12-07T15:34:31;3.20;99.90
8093;DHT22;4089;52.420;13.334;2023-12-07T15:37:07;3.20;99.90
8093;DHT22;4089;52.420;13.334;2023-12-07T15:39:34;3.20;99.90
8093;DHT22;4089;52.420;13.334;2023-12-07T15:42:01;3.30;99.90
8093;DHT22;4089;52.420;13.334;2023-12-07T15:44:29;3.20;99.90
8093;DHT22;4089;52.420;13.334;2023-12-07T15:46:58;3.20;99.90
8093;DHT22;4089;52.420;13.334;2023-12-07T15:49:25;3.20;99.90
8093;DHT22;4089;52.420;13.334;2023-12-07T15:51:52;3.10;99.90
8093;DHT22;4089;52.420;13.334;2023-12-07T15:54:25;3.10;99.90
8093;DHT22;4089;52.420;13.334;2023-12-07T15:57:05;3.10;99.90
8093;DHT22;4089;52.420;13.334;2023-12-07T15:59:32;3.20;99.90
8093;DHT22;4089;52.420;13.334;2023-12-07T16:01:59;3.20;99.90
8093;DHT22;4089;52.420;13.334;2023-12-07T16:04:28;3.10;99.90
8093;DHT22;4089;52.420;13.334;2023-12-07T16:07:03;3.10;99.90
8093;DHT22;4089;52.420;13.334;2023-12-07T16:09:36;3.10;99.90
8093;DHT22;4089;52.420;13.334;2023-12-07T16:12:05;3.00;99.90
8093;DHT22;4089;52.420;13.334;2023-12-07T16:14:33;3.00;99.90
8093;DHT22;4089;52.420;13.334;2023-12-07T16:17:01;3.00;99.90